sensor_id;sensor_type;location;lat;lon;timestamp;pressure;altitude;pressure_sealevel;temperature;humidity
64602;BME280;51013;42.630;23.192;2022-09-12T00:01:08;92240.91;;;15.62;91.68
64602;BME280;51013;42.630;23.192;2022-09-12T00:03:38;92253.78;;;15.64;91.22
64602;BME280;51013;42.630;23.192;2022-09-12T00:06:10;92254.56;;;15.68;90.53
64602;BME280;51013;42.630;23.192;2022-09-12T00:08:38;92250.03;;;15.69;89.24
64602;BME280;51013;42.630;23.192;2022-09-12T00:11:07;92257.94;;;15.61;89.97
64602;BME280;51013;42.630;23.192;2022-09-12T00:13:34;92232.16;;;15.51;90.26
64602;BME280;51013;42.630;23.192;2022-09-12T00:16:02;92222.50;;;15.18;90.55
64602;BME280;51013;42.630;23.192;2022-09-12T00:18:29;92259.34;;;15.41;90.42
64602;BME280;51013;42.630;23.192;2022-09-12T00:21:01;92257.44;;;15.41;91.09
64602;BME280;51013;42.630;23.192;2022-09-12T00:23:30;92252.88;;;15.38;90.63
64602;BME280;51013;42.630;23.192;2022-09-12T00:25:57;92258.06;;;15.24;91.27
64602;BME280;51013;42.630;23.192;2022-09-12T00:28:24;92266.75;;;15.21;91.29
64602;BME280;51013;42.630;23.192;2022-09-12T00:30:52;92176.34;;;14.63;91.93
64602;BME280;51013;42.630;23.192;2022-09-12T00:33:18;92232.59;;;15.05;91.59
64602;BME280;51013;42.630;23.192;2022-09-12T00:35:47;92255.38;;;15.20;91.82
64602;BME280;51013;42.630;23.192;2022-09-12T00:38:16;92231.91;;;15.12;91.41
64602;BME280;51013;42.630;23.192;2022-09-12T00:40:43;92180.59;;;14.75;91.84
64602;BME280;51013;42.630;23.192;2022-09-12T00:43:13;92253.13;;;15.19;92.19
64602;BME280;51013;42.630;23.192;2022-09-12T00:45:40;92190.75;;;14.70;91.88
64602;BME280;51013;42.630;23.192;2022-09-12T00:48:16;92253.91;;;15.23;91.60
64602;BME280;51013;42.630;23.192;2022-09-12T00:50:45;92263.00;;;15.26;91.52
64602;BME280;51013;42.630;23.192;2022-09-12T00:53:12;92229.19;;;15.01;91.86
64602;BME280;51013;42.630;23.192;2022-09-12T00:55:43;92251.94;;;15.16;90.94
64602;BME280;51013;42.630;23.192;2022-09-12T00:58:16;92240.97;;;15.14;90.80
64602;BME280;51013;42.630;23.192;2022-09-12T01:00:45;92240.63;;;15.16;90.34
64602;BME280;51013;42.630;23.192;2022-09-12T01:03:15;92170.34;;;14.67;89.22
64602;BME280;51013;42.630;23.192;2022-09-12T01:05:46;92153.88;;;14.43;89.28
64602;BME280;51013;42.630;23.192;2022-09-12T01:08:18;92227.28;;;15.01;87.68
64602;BME280;51013;42.630;23.192;2022-09-12T01:10:47;92235.53;;;14.93;88.46
64602;BME280;51013;42.630;23.192;2022-09-12T01:13:15;92227.59;;;14.93;87.88
64602;BME280;51013;42.630;23.192;2022-09-12T01:15:42;92156.88;;;14.38;87.87
64602;BME280;51013;42.630;23.192;2022-09-12T01:18:15;92231.97;;;14.74;88.49
64602;BME280;51013;42.630;23.192;2022-09-12T01:20:53;92200.03;;;14.53;87.54
64602;BME280;51013;42.630;23.192;2022-09-12T01:33:04;92216.72;;;14.23;87.80
64602;BME280;51013;42.630;23.192;2022-09-12T01:35:39;92204.53;;;14.11;88.44
64602;BME280;51013;42.630;23.192;2022-09-12T01:38:14;92179.69;;;13.82;88.96
64602;BME280;51013;42.630;23.192;2022-09-12T01:40:50;92161.41;;;13.66;89.40
64602;BME280;51013;42.630;23.192;2022-09-12T01:43:23;92192.97;;;13.89;89.30
64602;BME280;51013;42.630;23.192;2022-09-12T01:45:57;92207.00;;;13.97;89.23
64602;BME280;51013;42.630;23.192;2022-09-12T01:48:29;92227.50;;;14.07;89.38
64602;BME280;51013;42.630;23.192;2022-09-12T01:51:06;92226.34;;;14.05;89.53
64602;BME280;51013;42.630;23.192;2022-09-12T01:53:38;92043.06;;;12.74;89.14
64602;BME280;51013;42.630;23.192;2022-09-12T01:56:11;92218.69;;;13.96;89.18
64602;BME280;51013;42.630;23.192;2022-09-12T01:58:40;92223.97;;;13.96;88.85
64602;BME280;51013;42.630;23.192;2022-09-12T02:01:11;92104.63;;;13.19;88.48
64602;BME280;51013;42.630;23.192;2022-09-12T02:03:45;92186.34;;;13.72;88.56
64602;BME280;51013;42.630;23.192;2022-09-12T02:06:18;92217.03;;;13.84;88.24
64602;BME280;51013;42.630;23.192;2022-09-12T02:08:49;92210.22;;;13.79;88.33
64602;BME280;51013;42.630;23.192;2022-09-12T02:11:18;92219.22;;;13.75;89.51
64602;BME280;51013;42.630;23.192;2022-09-12T02:13:48;92225.41;;;13.59;89.75
64602;BME280;51013;42.630;23.192;2022-09-12T02:16:21;92225.41;;;13.59;89.18
64602;BME280;51013;42.630;23.192;2022-09-12T02:18:53;92039.34;;;12.25;89.05
64602;BME280;51013;42.630;23.192;2022-09-12T02:21:23;92223.41;;;13.49;88.65
64602;BME280;51013;42.630;23.192;2022-09-12T02:23:54;92224.91;;;13.50;88.64
64602;BME280;51013;42.630;23.192;2022-09-12T02:26:28;92220.97;;;13.37;88.24
64602;BME280;51013;42.630;23.192;2022-09-12T02:28:57;92223.66;;;13.14;90.21
64602;BME280;51013;42.630;23.192;2022-09-12T02:31:28;92196.00;;;12.81;90.40
64602;BME280;51013;42.630;23.192;2022-09-12T02:34:08;92034.41;;;11.77;90.25
64602;BME280;51013;42.630;23.192;2022-09-12T02:36:43;92221.75;;;13.14;90.58
64602;BME280;51013;42.630;23.192;2022-09-12T02:39:14;92200.09;;;13.01;90.03
64602;BME280;51013;42.630;23.192;2022-09-12T02:41:44;92211.00;;;13.00;89.67
64602;BME280;51013;42.630;23.192;2022-09-12T02:44:11;92106.22;;;12.20;90.02
64602;BME280;51013;42.630;23.192;2022-09-12T02:46:41;92230.31;;;13.08;90.31
64602;BME280;51013;42.630;23.192;2022-09-12T02:49:11;92184.78;;;12.84;90.18
64602;BME280;51013;42.630;23.192;2022-09-12T02:51:39;92227.31;;;13.09;89.42
64602;BME280;51013;42.630;23.192;2022-09-12T02:54:06;92227.97;;;13.02;88.83
64602;BME280;51013;42.630;23.192;2022-09-12T02:56:35;92196.44;;;12.60;90.25
64602;BME280;51013;42.630;23.192;2022-09-12T02:59:05;92193.69;;;12.53;90.38
64602;BME280;51013;42.630;23.192;2022-09-12T03:01:37;92242.59;;;12.73;90.31
64602;BME280;51013;42.630;23.192;2022-09-12T03:04:22;92229.47;;;12.77;90.76
64602;BME280;51013;42.630;23.192;2022-09-12T03:07:02;92218.81;;;12.70;91.05
64602;BME280;51013;42.630;23.192;2022-09-12T03:09:38;92215.06;;;12.48;91.89
64602;BME280;51013;42.630;23.192;2022-09-12T03:12:19;92183.78;;;12.23;91.60
64602;BME280;51013;42.630;23.192;2022-09-12T03:15:11;92242.81;;;12.65;91.83
64602;BME280;51013;42.630;23.192;2022-09-12T03:17:46;92242.88;;;12.68;91.41
64602;BME280;51013;42.630;23.192;2022-09-12T03:20:23;92003.06;;;11.03;90.70
64602;BME280;51013;42.630;23.192;2022-09-12T03:22:53;92243.88;;;12.60;90.68
64602;BME280;51013;42.630;23.192;2022-09-12T03:25:26;92162.69;;;12.00;91.08
64602;BME280;51013;42.630;23.192;2022-09-12T03:27:57;92247.19;;;12.57;89.98
64602;BME280;51013;42.630;23.192;2022-09-12T03:30:25;92193.19;;;12.24;90.82
64602;BME280;51013;42.630;23.192;2022-09-12T03:32:53;92248.03;;;12.61;91.53
64602;BME280;51013;42.630;23.192;2022-09-12T03:35:23;92248.25;;;12.52;91.19
64602;BME280;51013;42.630;23.192;2022-09-12T03:37:51;92242.91;;;12.49;91.35
64602;BME280;51013;42.630;23.192;2022-09-12T03:40:19;92246.38;;;12.53;90.63
64602;BME280;51013;42.630;23.192;2022-09-12T03:42:45;92245.03;;;12.62;91.08
64602;BME280;51013;42.630;23.192;2022-09-12T03:45:13;92245.22;;;12.50;91.23
64602;BME280;51013;42.630;23.192;2022-09-12T03:47:40;92202.91;;;12.20;91.33
64602;BME280;51013;42.630;23.192;2022-09-12T03:50:07;92228.47;;;12.39;91.78
64602;BME280;51013;42.630;23.192;2022-09-12T03:52:36;92240.50;;;12.40;91.20
64602;BME280;51013;42.630;23.192;2022-09-12T03:55:03;92167.00;;;11.89;91.25
64602;BME280;51013;42.630;23.192;2022-09-12T03:57:30;92128.22;;;11.66;91.38
64602;BME280;51013;42.630;23.192;2022-09-12T03:59:58;92241.63;;;12.39;91.09
64602;BME280;51013;42.630;23.192;2022-09-12T04:02:26;92239.41;;;12.41;91.08
64602;BME280;51013;42.630;23.192;2022-09-12T04:04:53;92245.03;;;12.39;91.34
64602;BME280;51013;42.630;23.192;2022-09-12T04:07:21;92068.81;;;11.07;91.31
64602;BME280;51013;42.630;23.192;2022-09-12T04:09:49;92139.31;;;11.56;91.89
64602;BME280;51013;42.630;23.192;2022-09-12T04:12:16;92226.19;;;12.18;91.68
64602;BME280;51013;42.630;23.192;2022-09-12T04:14:43;92248.31;;;12.33;91.49
64602;BME280;51013;42.630;23.192;2022-09-12T04:17:11;92249.47;;;12.35;92.60
64602;BME280;51013;42.630;23.192;2022-09-12T04:19:38;92213.06;;;11.98;92.31
64602;BME280;51013;42.630;23.192;2022-09-12T04:22:05;92247.09;;;12.30;93.31
64602;BME280;51013;42.630;23.192;2022-09-12T04:24:32;92028.16;;;10.81;92.55
64602;BME280;51013;42.630;23.192;2022-09-12T04:27:01;92257.03;;;12.37;93.00
64602;BME280;51013;42.630;23.192;2022-09-12T04:29:29;92192.63;;;11.92;93.03
64602;BME280;51013;42.630;23.192;2022-09-12T04:31:56;92259.25;;;12.35;93.41
64602;BME280;51013;42.630;23.192;2022-09-12T04:34:23;92263.47;;;12.39;93.53
64602;BME280;51013;42.630;23.192;2022-09-12T04:36:50;92260.91;;;12.43;93.12
64602;BME280;51013;42.630;23.192;2022-09-12T04:39:17;92213.06;;;11.98;93.94
64602;BME280;51013;42.630;23.192;2022-09-12T04:41:44;92255.84;;;12.34;94.60
64602;BME280;51013;42.630;23.192;2022-09-12T04:44:13;92048.22;;;10.89;94.41
64602;BME280;51013;42.630;23.192;2022-09-12T04:46:42;92269.25;;;12.49;94.63
64602;BME280;51013;42.630;23.192;2022-09-12T04:49:10;92268.59;;;12.32;95.20
64602;BME280;51013;42.630;23.192;2022-09-12T04:51:38;92105.16;;;11.20;95.39
64602;BME280;51013;42.630;23.192;2022-09-12T04:54:07;92283.22;;;12.49;94.92
64602;BME280;51013;42.630;23.192;2022-09-12T04:56:37;92138.25;;;11.60;95.58
64602;BME280;51013;42.630;23.192;2022-09-12T04:59:04;92139.09;;;11.65;95.08
64602;BME280;51013;42.630;23.192;2022-09-12T05:01:34;92194.97;;;11.97;96.14
64602;BME280;51013;42.630;23.192;2022-09-12T05:04:01;92272.16;;;12.63;96.23
64602;BME280;51013;42.630;23.192;2022-09-12T05:06:31;92192.06;;;12.02;95.63
64602;BME280;51013;42.630;23.192;2022-09-12T05:09:00;92217.63;;;12.21;95.73
64602;BME280;51013;42.630;23.192;2022-09-12T05:11:29;92282.13;;;12.73;96.06
64602;BME280;51013;42.630;23.192;2022-09-12T05:13:56;92057.50;;;11.22;95.20
64602;BME280;51013;42.630;23.192;2022-09-12T05:16:24;92216.28;;;12.31;96.24
64602;BME280;51013;42.630;23.192;2022-09-12T05:18:54;92285.34;;;12.86;96.63
64602;BME280;51013;42.630;23.192;2022-09-12T05:21:22;92173.84;;;12.13;96.66
64602;BME280;51013;42.630;23.192;2022-09-12T05:23:50;92281.00;;;12.97;97.38
64602;BME280;51013;42.630;23.192;2022-09-12T05:26:17;92289.28;;;12.96;97.29
64602;BME280;51013;42.630;23.192;2022-09-12T05:28:45;92283.63;;;12.97;98.24
64602;BME280;51013;42.630;23.192;2022-09-12T05:31:15;92263.69;;;12.96;98.25
64602;BME280;51013;42.630;23.192;2022-09-12T05:33:44;92177.59;;;12.35;98.83
64602;BME280;51013;42.630;23.192;2022-09-12T05:36:14;92292.44;;;13.05;100.00
64602;BME280;51013;42.630;23.192;2022-09-12T05:38:41;92283.53;;;13.13;99.43
64602;BME280;51013;42.630;23.192;2022-09-12T05:41:10;92261.03;;;12.96;100.00
64602;BME280;51013;42.630;23.192;2022-09-12T05:43:38;92281.47;;;13.26;100.00
64602;BME280;51013;42.630;23.192;2022-09-12T05:46:07;92262.47;;;13.17;99.79
64602;BME280;51013;42.630;23.192;2022-09-12T05:48:35;92269.53;;;13.32;94.01
64602;BME280;51013;42.630;23.192;2022-09-12T05:51:04;92276.78;;;13.39;96.50
64602;BME280;51013;42.630;23.192;2022-09-12T05:53:36;92181.41;;;12.87;96.97
64602;BME280;51013;42.630;23.192;2022-09-12T05:56:06;92265.63;;;13.49;96.60
64602;BME280;51013;42.630;23.192;2022-09-12T05:58:36;92231.06;;;13.31;97.28
64602;BME280;51013;42.630;23.192;2022-09-12T06:01:04;92170.31;;;13.01;97.54
64602;BME280;51013;42.630;23.192;2022-09-12T06:03:33;92256.69;;;13.57;96.66
64602;BME280;51013;42.630;23.192;2022-09-12T06:06:02;92163.13;;;12.98;96.00
64602;BME280;51013;42.630;23.192;2022-09-12T06:08:30;92245.03;;;13.62;96.94
64602;BME280;51013;42.630;23.192;2022-09-12T06:11:00;92242.16;;;13.71;97.57
64602;BME280;51013;42.630;23.192;2022-09-12T06:13:27;92230.94;;;13.77;97.41
64602;BME280;51013;42.630;23.192;2022-09-12T06:15:54;92251.09;;;13.93;98.08
64602;BME280;51013;42.630;23.192;2022-09-12T06:18:20;92189.91;;;13.53;97.80
64602;BME280;51013;42.630;23.192;2022-09-12T06:20:47;92255.72;;;13.99;97.17
64602;BME280;51013;42.630;23.192;2022-09-12T06:23:14;92265.16;;;14.00;97.49
64602;BME280;51013;42.630;23.192;2022-09-12T06:25:48;92243.16;;;13.93;96.86
64602;BME280;51013;42.630;23.192;2022-09-12T06:28:16;92269.50;;;14.16;95.13
64602;BME280;51013;42.630;23.192;2022-09-12T06:30:44;92269.50;;;14.16;95.57
64602;BME280;51013;42.630;23.192;2022-09-12T06:33:10;92248.66;;;14.11;91.05
64602;BME280;51013;42.630;23.192;2022-09-12T06:35:37;92273.41;;;14.29;87.36
64602;BME280;51013;42.630;23.192;2022-09-12T06:38:04;92271.53;;;14.30;89.34
64602;BME280;51013;42.630;23.192;2022-09-12T06:40:34;92272.03;;;14.42;90.70
64602;BME280;51013;42.630;23.192;2022-09-12T06:43:00;92231.78;;;14.19;86.44
64602;BME280;51013;42.630;23.192;2022-09-12T06:45:29;92281.75;;;14.65;87.75
64602;BME280;51013;42.630;23.192;2022-09-12T06:47:55;92283.34;;;14.73;90.71
64602;BME280;51013;42.630;23.192;2022-09-12T06:50:22;92263.56;;;14.60;86.50
64602;BME280;51013;42.630;23.192;2022-09-12T06:52:49;92291.66;;;14.75;87.76
64602;BME280;51013;42.630;23.192;2022-09-12T06:55:16;92290.44;;;14.66;85.98
64602;BME280;51013;42.630;23.192;2022-09-12T06:57:43;92294.91;;;14.61;88.04
64602;BME280;51013;42.630;23.192;2022-09-12T07:00:11;92290.81;;;14.68;88.77
64602;BME280;51013;42.630;23.192;2022-09-12T07:02:40;92303.78;;;14.76;91.62
64602;BME280;51013;42.630;23.192;2022-09-12T07:05:08;92298.47;;;14.76;91.58
64602;BME280;51013;42.630;23.192;2022-09-12T07:07:35;92295.03;;;14.72;85.71
64602;BME280;51013;42.630;23.192;2022-09-12T07:10:03;92297.03;;;14.82;87.50
64602;BME280;51013;42.630;23.192;2022-09-12T07:12:31;92295.44;;;14.74;86.19
64602;BME280;51013;42.630;23.192;2022-09-12T07:14:58;92279.78;;;14.58;85.41
64602;BME280;51013;42.630;23.192;2022-09-12T07:17:25;92223.09;;;14.18;85.76
64602;BME280;51013;42.630;23.192;2022-09-12T07:19:53;92308.66;;;14.74;85.45
64602;BME280;51013;42.630;23.192;2022-09-12T07:22:20;92307.22;;;14.84;87.04
64602;BME280;51013;42.630;23.192;2022-09-12T07:24:47;92312.91;;;14.82;84.13
64602;BME280;51013;42.630;23.192;2022-09-12T07:27:14;92305.28;;;14.77;83.58
64602;BME280;51013;42.630;23.192;2022-09-12T07:29:41;92271.16;;;14.65;85.61
64602;BME280;51013;42.630;23.192;2022-09-12T07:32:09;92312.75;;;15.09;84.57
64602;BME280;51013;42.630;23.192;2022-09-12T07:34:36;92314.63;;;15.05;82.71
64602;BME280;51013;42.630;23.192;2022-09-12T07:37:04;92302.50;;;15.00;80.63
64602;BME280;51013;42.630;23.192;2022-09-12T07:39:31;92305.88;;;15.01;84.05
64602;BME280;51013;42.630;23.192;2022-09-12T07:41:58;92308.88;;;14.99;81.68
64602;BME280;51013;42.630;23.192;2022-09-12T07:44:25;92256.03;;;14.62;82.61
64602;BME280;51013;42.630;23.192;2022-09-12T07:46:53;92314.31;;;15.14;85.41
64602;BME280;51013;42.630;23.192;2022-09-12T07:49:20;92306.38;;;15.14;81.42
64602;BME280;51013;42.630;23.192;2022-09-12T07:51:47;92305.34;;;15.26;84.00
64602;BME280;51013;42.630;23.192;2022-09-12T07:54:15;92313.31;;;15.29;78.19
64602;BME280;51013;42.630;23.192;2022-09-12T07:56:42;92318.66;;;15.36;80.80
64602;BME280;51013;42.630;23.192;2022-09-12T07:59:10;92312.94;;;15.31;79.03
64602;BME280;51013;42.630;23.192;2022-09-12T08:01:37;92242.22;;;14.79;77.69
64602;BME280;51013;42.630;23.192;2022-09-12T08:04:06;92315.25;;;15.36;80.88
64602;BME280;51013;42.630;23.192;2022-09-12T08:06:33;92313.34;;;15.36;80.62
64602;BME280;51013;42.630;23.192;2022-09-12T08:09:01;92230.53;;;14.84;82.36
64602;BME280;51013;42.630;23.192;2022-09-12T08:11:30;92312.31;;;15.48;78.85
64602;BME280;51013;42.630;23.192;2022-09-12T08:13:57;92297.94;;;15.46;78.29
64602;BME280;51013;42.630;23.192;2022-09-12T08:16:27;92251.16;;;15.09;77.68
64602;BME280;51013;42.630;23.192;2022-09-12T08:18:55;92306.63;;;15.46;79.50
64602;BME280;51013;42.630;23.192;2022-09-12T08:21:24;92289.53;;;15.36;78.48
64602;BME280;51013;42.630;23.192;2022-09-12T08:23:52;92290.03;;;15.53;79.26
64602;BME280;51013;42.630;23.192;2022-09-12T08:26:19;92320.88;;;15.75;79.99
64602;BME280;51013;42.630;23.192;2022-09-12T08:28:48;92316.34;;;15.79;75.67
64602;BME280;51013;42.630;23.192;2022-09-12T08:31:17;92309.19;;;15.87;78.01
64602;BME280;51013;42.630;23.192;2022-09-12T08:33:44;92202.84;;;15.22;75.39
64602;BME280;51013;42.630;23.192;2022-09-12T08:36:13;92309.59;;;15.93;76.21
64602;BME280;51013;42.630;23.192;2022-09-12T08:38:43;92219.94;;;15.32;76.96
64602;BME280;51013;42.630;23.192;2022-09-12T08:41:14;92312.63;;;15.88;79.12
64602;BME280;51013;42.630;23.192;2022-09-12T08:44:00;92238.13;;;15.37;76.33
64602;BME280;51013;42.630;23.192;2022-09-12T08:46:36;92309.72;;;16.14;76.83
64602;BME280;51013;42.630;23.192;2022-09-12T08:49:08;92312.81;;;16.27;78.61
64602;BME280;51013;42.630;23.192;2022-09-12T08:51:36;92274.50;;;16.17;78.21
64602;BME280;51013;42.630;23.192;2022-09-12T08:54:19;92255.97;;;16.21;76.40
64602;BME280;51013;42.630;23.192;2022-09-12T08:56:47;92276.53;;;16.53;75.61
64602;BME280;51013;42.630;23.192;2022-09-12T08:59:15;92247.34;;;16.38;74.38
64602;BME280;51013;42.630;23.192;2022-09-12T09:01:44;92302.78;;;16.87;73.90
64602;BME280;51013;42.630;23.192;2022-09-12T09:04:33;92297.84;;;16.89;72.46
64602;BME280;51013;42.630;23.192;2022-09-12T09:07:21;92247.75;;;16.55;72.30
64602;BME280;51013;42.630;23.192;2022-09-12T09:10:07;92281.91;;;16.71;72.80
64602;BME280;51013;42.630;23.192;2022-09-12T09:12:48;92284.97;;;16.84;72.76
64602;BME280;51013;42.630;23.192;2022-09-12T09:15:31;92220.09;;;16.49;72.47
64602;BME280;51013;42.630;23.192;2022-09-12T09:18:00;92239.47;;;16.71;71.82
64602;BME280;51013;42.630;23.192;2022-09-12T09:20:34;92230.75;;;16.77;70.62
64602;BME280;51013;42.630;23.192;2022-09-12T09:23:07;92300.53;;;17.03;69.40
64602;BME280;51013;42.630;23.192;2022-09-12T09:25:47;92281.50;;;16.72;70.20
64602;BME280;51013;42.630;23.192;2022-09-12T09:28:20;92237.53;;;16.60;71.07
64602;BME280;51013;42.630;23.192;2022-09-12T09:30:49;92294.47;;;16.92;70.37
64602;BME280;51013;42.630;23.192;2022-09-12T09:33:21;92295.53;;;16.80;69.25
64602;BME280;51013;42.630;23.192;2022-09-12T09:35:58;92294.06;;;16.90;71.29
64602;BME280;51013;42.630;23.192;2022-09-12T09:38:40;92306.22;;;16.94;71.34
64602;BME280;51013;42.630;23.192;2022-09-12T09:41:25;92232.59;;;16.55;72.66
64602;BME280;51013;42.630;23.192;2022-09-12T09:43:55;92288.03;;;16.89;70.57
64602;BME280;51013;42.630;23.192;2022-09-12T09:46:23;92288.78;;;17.00;70.78
64602;BME280;51013;42.630;23.192;2022-09-12T09:48:50;92191.66;;;16.38;71.49
64602;BME280;51013;42.630;23.192;2022-09-12T09:51:22;92270.56;;;16.88;70.20
64602;BME280;51013;42.630;23.192;2022-09-12T09:53:53;92237.59;;;16.82;70.13
64602;BME280;51013;42.630;23.192;2022-09-12T09:56:27;92263.00;;;16.94;71.40
64602;BME280;51013;42.630;23.192;2022-09-12T09:58:54;92194.72;;;16.62;72.01
64602;BME280;51013;42.630;23.192;2022-09-12T10:01:23;92058.31;;;15.80;69.88
64602;BME280;51013;42.630;23.192;2022-09-12T10:03:53;92279.69;;;17.41;70.31
64602;BME280;51013;42.630;23.192;2022-09-12T10:06:24;92237.63;;;17.04;71.33
64602;BME280;51013;42.630;23.192;2022-09-12T10:09:04;92274.00;;;17.50;68.71
64602;BME280;51013;42.630;23.192;2022-09-12T10:11:33;92277.03;;;17.62;72.30
64602;BME280;51013;42.630;23.192;2022-09-12T10:14:00;92241.75;;;17.48;69.15
64602;BME280;51013;42.630;23.192;2022-09-12T10:16:30;92240.22;;;17.68;68.97
64602;BME280;51013;42.630;23.192;2022-09-12T10:18:59;92284.97;;;17.98;70.77
64602;BME280;51013;42.630;23.192;2022-09-12T10:21:30;92206.47;;;17.54;68.72
64602;BME280;51013;42.630;23.192;2022-09-12T10:24:18;92208.75;;;17.45;67.91
64602;BME280;51013;42.630;23.192;2022-09-12T10:26:49;92264.88;;;17.87;68.00
64602;BME280;51013;42.630;23.192;2022-09-12T10:29:17;92262.13;;;18.12;68.81
64602;BME280;51013;42.630;23.192;2022-09-12T10:31:51;92109.03;;;17.33;68.20
64602;BME280;51013;42.630;23.192;2022-09-12T10:34:24;92261.50;;;18.67;70.08
64602;BME280;51013;42.630;23.192;2022-09-12T10:36:59;92274.13;;;18.56;67.80
64602;BME280;51013;42.630;23.192;2022-09-12T10:39:27;92282.16;;;18.45;67.08
64602;BME280;51013;42.630;23.192;2022-09-12T10:41:55;92189.69;;;17.86;67.55
64602;BME280;51013;42.630;23.192;2022-09-12T10:44:25;92254.75;;;18.48;65.71
64602;BME280;51013;42.630;23.192;2022-09-12T10:46:53;92274.78;;;18.74;66.44
64602;BME280;51013;42.630;23.192;2022-09-12T10:49:23;92270.22;;;18.82;63.71
64602;BME280;51013;42.630;23.192;2022-09-12T10:51:52;92272.72;;;19.04;63.89
64602;BME280;51013;42.630;23.192;2022-09-12T10:54:21;92075.22;;;17.52;64.08
64602;BME280;51013;42.630;23.192;2022-09-12T10:57:06;92249.75;;;18.65;64.33
64602;BME280;51013;42.630;23.192;2022-09-12T10:59:49;92277.75;;;18.87;65.92
64602;BME280;51013;42.630;23.192;2022-09-12T11:02:27;92222.41;;;18.57;67.81
64602;BME280;51013;42.630;23.192;2022-09-12T11:05:01;92268.44;;;19.20;64.24
64602;BME280;51013;42.630;23.192;2022-09-12T11:07:42;92258.28;;;19.50;62.66
64602;BME280;51013;42.630;23.192;2022-09-12T11:10:30;92283.72;;;19.58;62.40
64602;BME280;51013;42.630;23.192;2022-09-12T11:13:11;92280.22;;;19.19;64.28
64602;BME280;51013;42.630;23.192;2022-09-12T11:15:55;92241.69;;;18.75;62.79
64602;BME280;51013;42.630;23.192;2022-09-12T11:21:31;92238.53;;;19.47;64.09
64602;BME280;51013;42.630;23.192;2022-09-12T11:24:08;92194.22;;;19.23;59.22
64602;BME280;51013;42.630;23.192;2022-09-12T11:26:58;92261.41;;;19.45;60.06
64602;BME280;51013;42.630;23.192;2022-09-12T11:29:37;92160.19;;;18.44;61.43
64602;BME280;51013;42.630;23.192;2022-09-12T11:32:18;92266.19;;;19.12;62.15
64602;BME280;51013;42.630;23.192;2022-09-12T11:35:00;92191.69;;;18.49;62.53
64602;BME280;51013;42.630;23.192;2022-09-12T11:37:44;92259.09;;;18.94;63.00
64602;BME280;51013;42.630;23.192;2022-09-12T11:40:24;92277.25;;;19.10;64.35
64602;BME280;51013;42.630;23.192;2022-09-12T11:42:58;92245.47;;;18.85;63.13
64602;BME280;51013;42.630;23.192;2022-09-12T11:45:28;92208.75;;;18.55;64.22
64602;BME280;51013;42.630;23.192;2022-09-12T11:48:02;92271.22;;;19.02;63.94
64602;BME280;51013;42.630;23.192;2022-09-12T11:50:32;92062.69;;;17.56;62.68
64602;BME280;51013;42.630;23.192;2022-09-12T11:53:10;92086.53;;;17.63;63.53
64602;BME280;51013;42.630;23.192;2022-09-12T11:55:47;92267.94;;;18.73;63.76
64602;BME280;51013;42.630;23.192;2022-09-12T11:58:21;92263.03;;;18.65;63.03
64602;BME280;51013;42.630;23.192;2022-09-12T12:00:53;92274.41;;;18.72;63.85
64602;BME280;51013;42.630;23.192;2022-09-12T12:03:27;92221.75;;;18.42;65.90
64602;BME280;51013;42.630;23.192;2022-09-12T12:06:01;92245.16;;;18.69;65.60
64602;BME280;51013;42.630;23.192;2022-09-12T12:08:31;92142.91;;;18.10;61.89
64602;BME280;51013;42.630;23.192;2022-09-12T12:11:04;92163.69;;;18.33;61.31
64602;BME280;51013;42.630;23.192;2022-09-12T12:13:33;92189.00;;;18.56;61.06
64602;BME280;51013;42.630;23.192;2022-09-12T12:16:05;92262.16;;;19.41;60.99
64602;BME280;51013;42.630;23.192;2022-09-12T12:18:36;92269.38;;;19.45;60.03
64602;BME280;51013;42.630;23.192;2022-09-12T12:21:28;92216.97;;;18.82;59.02
64602;BME280;51013;42.630;23.192;2022-09-12T12:24:16;92084.94;;;17.80;60.44
64602;BME280;51013;42.630;23.192;2022-09-12T12:26:59;92256.00;;;19.03;62.06
64602;BME280;51013;42.630;23.192;2022-09-12T12:29:38;92195.31;;;18.80;62.82
64602;BME280;51013;42.630;23.192;2022-09-12T12:32:22;92174.03;;;18.84;59.28
64602;BME280;51013;42.630;23.192;2022-09-12T12:34:49;92243.22;;;19.32;59.60
64602;BME280;51013;42.630;23.192;2022-09-12T12:37:51;92250.03;;;19.37;58.58
64602;BME280;51013;42.630;23.192;2022-09-12T12:40:24;92248.59;;;19.70;59.27
64602;BME280;51013;42.630;23.192;2022-09-12T12:43:03;92229.75;;;20.26;55.71
64602;BME280;51013;42.630;23.192;2022-09-12T12:49:02;92242.16;;;21.49;51.66
64602;BME280;51013;42.630;23.192;2022-09-12T12:51:37;92252.72;;;21.79;50.02
64602;BME280;51013;42.630;23.192;2022-09-12T12:54:28;92230.66;;;21.95;50.43
64602;BME280;51013;42.630;23.192;2022-09-12T12:57:15;92181.41;;;21.73;50.52
64602;BME280;51013;42.630;23.192;2022-09-12T12:59:49;92214.56;;;21.99;48.38
64602;BME280;51013;42.630;23.192;2022-09-12T13:02:22;92172.38;;;22.07;46.97
64602;BME280;51013;42.630;23.192;2022-09-12T13:04:50;92220.97;;;22.62;47.25
64602;BME280;51013;42.630;23.192;2022-09-12T13:07:25;92222.72;;;22.52;47.21
64602;BME280;51013;42.630;23.192;2022-09-12T13:09:54;92227.31;;;22.11;48.04
64602;BME280;51013;42.630;23.192;2022-09-12T13:12:24;92246.44;;;21.90;49.54
64602;BME280;51013;42.630;23.192;2022-09-12T13:14:54;92246.22;;;21.57;49.79
64602;BME280;51013;42.630;23.192;2022-09-12T13:17:37;92231.56;;;21.41;48.70
64602;BME280;51013;42.630;23.192;2022-09-12T13:20:18;92238.00;;;21.20;50.77
64602;BME280;51013;42.630;23.192;2022-09-12T13:22:47;92251.59;;;21.30;50.23
64602;BME280;51013;42.630;23.192;2022-09-12T13:25:27;92161.69;;;20.96;51.23
64602;BME280;51013;42.630;23.192;2022-09-12T13:27:56;92186.56;;;21.16;50.68